sensor_id;sensor_type;location;lat;lon;timestamp;temperature;humidity
17364;DHT22;8799;43.594;13.526;2023-04-06T00:00:14;16.50;98.00
17364;DHT22;8799;43.594;13.526;2023-04-06T00:02:42;16.50;97.90
17364;DHT22;8799;43.594;13.526;2023-04-06T00:05:10;16.50;97.90
17364;DHT22;8799;43.594;13.526;2023-04-06T00:07:38;16.50;97.90
17364;DHT22;8799;43.594;13.526;2023-04-06T00:10:06;16.50;97.90
17364;DHT22;8799;43.594;13.526;2023-04-06T00:12:37;16.50;97.90
17364;DHT22;8799;43.594;13.526;2023-04-06T00:15:05;16.50;97.80
17364;DHT22;8799;43.594;13.526;2023-04-06T00:17:33;16.50;97.90
17364;DHT22;8799;43.594;13.526;2023-04-06T00:20:00;16.50;97.90
17364;DHT22;8799;43.594;13.526;2023-04-06T00:22:28;16.50;97.90
17364;DHT22;8799;43.594;13.526;2023-04-06T00:24:56;16.50;97.90
17364;DHT22;8799;43.594;13.526;2023-04-06T00:27:25;16.40;97.80
17364;DHT22;8799;43.594;13.526;2023-04-06T00:29:55;16.40;97.80
17364;DHT22;8799;43.594;13.526;2023-04-06T00:32:24;16.40;97.60
17364;DHT22;8799;43.594;13.526;2023-04-06T00:34:53;16.40;97.50
17364;DHT22;8799;43.594;13.526;2023-04-06T00:37:22;16.40;97.50
17364;DHT22;8799;43.594;13.526;2023-04-06T00:39:49;16.40;97.50
17364;DHT22;8799;43.594;13.526;2023-04-06T00:42:18;16.40;97.70
17364;DHT22;8799;43.594;13.526;2023-04-06T00:44:51;16.40;97.80
17364;DHT22;8799;43.594;13.526;2023-04-06T00:47:21;16.40;97.80
17364;DHT22;8799;43.594;13.526;2023-04-06T00:49:49;16.40;97.80
17364;DHT22;8799;43.594;13.526;2023-04-06T00:52:17;16.40;97.80
17364;DHT22;8799;43.594;13.526;2023-04-06T00:54:45;16.40;97.80
17364;DHT22;8799;43.594;13.526;2023-04-06T00:57:13;16.40;97.80
17364;DHT22;8799;43.594;13.526;2023-04-06T00:59:42;16.40;97.80
17364;DHT22;8799;43.594;13.526;2023-04-06T01:02:10;16.40;97.80
17364;DHT22;8799;43.594;13.526;2023-04-06T01:04:39;16.40;97.90
17364;DHT22;8799;43.594;13.526;2023-04-06T01:07:08;16.30;97.90
17364;DHT22;8799;43.594;13.526;2023-04-06T01:09:36;16.30;97.90
17364;DHT22;8799;43.594;13.526;2023-04-06T01:12:06;16.30;98.20
17364;DHT22;8799;43.594;13.526;2023-04-06T01:14:35;16.30;98.40
17364;DHT22;8799;43.594;13.526;2023-04-06T01:17:03;16.30;98.50
17364;DHT22;8799;43.594;13.526;2023-04-06T01:19:31;16.30;98.40
17364;DHT22;8799;43.594;13.526;2023-04-06T01:22:01;16.30;98.20
17364;DHT22;8799;43.594;13.526;2023-04-06T01:24:31;16.30;98.40
17364;DHT22;8799;43.594;13.526;2023-04-06T01:26:59;16.30;98.20
17364;DHT22;8799;43.594;13.526;2023-04-06T01:29:27;16.30;98.30
17364;DHT22;8799;43.594;13.526;2023-04-06T01:31:55;16.30;98.30
17364;DHT22;8799;43.594;13.526;2023-04-06T01:34:23;16.30;98.20
17364;DHT22;8799;43.594;13.526;2023-04-06T01:36:50;16.30;98.20
17364;DHT22;8799;43.594;13.526;2023-04-06T01:39:19;16.30;98.20
17364;DHT22;8799;43.594;13.526;2023-04-06T01:41:49;16.30;98.20
17364;DHT22;8799;43.594;13.526;2023-04-06T01:44:18;16.30;98.50
17364;DHT22;8799;43.594;13.526;2023-04-06T01:46:46;16.30;98.50
17364;DHT22;8799;43.594;13.526;2023-04-06T01:49:14;16.30;98.50
17364;DHT22;8799;43.594;13.526;2023-04-06T01:51:43;16.30;98.60
17364;DHT22;8799;43.594;13.526;2023-04-06T01:54:11;16.30;98.60
17364;DHT22;8799;43.594;13.526;2023-04-06T01:56:39;16.30;98.50
17364;DHT22;8799;43.594;13.526;2023-04-06T01:59:08;16.20;98.60
17364;DHT22;8799;43.594;13.526;2023-04-06T02:01:37;16.30;98.90
17364;DHT22;8799;43.594;13.526;2023-04-06T02:04:06;16.30;99.00
17364;DHT22;8799;43.594;13.526;2023-04-06T02:06:33;16.30;99.20
17364;DHT22;8799;43.594;13.526;2023-04-06T02:09:02;16.30;99.40
17364;DHT22;8799;43.594;13.526;2023-04-06T02:11:30;16.20;99.40
17364;DHT22;8799;43.594;13.526;2023-04-06T02:13:58;16.20;99.30
17364;DHT22;8799;43.594;13.526;2023-04-06T02:16:28;16.20;99.20
17364;DHT22;8799;43.594;13.526;2023-04-06T02:18:56;16.20;99.10
17364;DHT22;8799;43.594;13.526;2023-04-06T02:21:27;16.20;99.00
17364;DHT22;8799;43.594;13.526;2023-04-06T02:23:55;16.20;99.00
17364;DHT22;8799;43.594;13.526;2023-04-06T02:26:23;16.20;98.90
17364;DHT22;8799;43.594;13.526;2023-04-06T02:28:51;16.20;98.90
17364;DHT22;8799;43.594;13.526;2023-04-06T02:31:19;16.20;98.80
17364;DHT22;8799;43.594;13.526;2023-04-06T02:33:50;16.20;98.80
17364;DHT22;8799;43.594;13.526;2023-04-06T02:36:18;16.20;98.70
17364;DHT22;8799;43.594;13.526;2023-04-06T02:38:45;16.20;98.70
17364;DHT22;8799;43.594;13.526;2023-04-06T02:41:14;16.20;98.50
17364;DHT22;8799;43.594;13.526;2023-04-06T02:43:42;16.20;98.50
17364;DHT22;8799;43.594;13.526;2023-04-06T02:46:10;16.20;98.30
17364;DHT22;8799;43.594;13.526;2023-04-06T02:48:38;16.20;98.30
17364;DHT22;8799;43.594;13.526;2023-04-06T02:51:08;16.10;98.20
17364;DHT22;8799;43.594;13.526;2023-04-06T02:53:35;16.10;98.20
17364;DHT22;8799;43.594;13.526;2023-04-06T02:56:03;16.10;98.20
17364;DHT22;8799;43.594;13.526;2023-04-06T02:58:31;16.10;98.30
17364;DHT22;8799;43.594;13.526;2023-04-06T03:01:00;16.10;98.20
17364;DHT22;8799;43.594;13.526;2023-04-06T03:03:28;16.10;98.20
17364;DHT22;8799;43.594;13.526;2023-04-06T03:05:57;16.10;98.00
17364;DHT22;8799;43.594;13.526;2023-04-06T03:08:27;16.10;98.00
17364;DHT22;8799;43.594;13.526;2023-04-06T03:10:55;16.10;97.80
17364;DHT22;8799;43.594;13.526;2023-04-06T03:13:23;16.10;97.80
17364;DHT22;8799;43.594;13.526;2023-04-06T03:15:50;16.10;97.70
17364;DHT22;8799;43.594;13.526;2023-04-06T03:18:21;16.10;97.70
17364;DHT22;8799;43.594;13.526;2023-04-06T03:20:50;16.10;97.70
17364;DHT22;8799;43.594;13.526;2023-04-06T03:23:19;16.10;97.60
17364;DHT22;8799;43.594;13.526;2023-04-06T03:25:49;16.10;97.60
17364;DHT22;8799;43.594;13.526;2023-04-06T03:28:17;16.10;97.50
17364;DHT22;8799;43.594;13.526;2023-04-06T03:30:45;16.00;97.50
17364;DHT22;8799;43.594;13.526;2023-04-06T03:33:13;16.00;97.50
17364;DHT22;8799;43.594;13.526;2023-04-06T03:35:41;16.10;97.50
17364;DHT22;8799;43.594;13.526;2023-04-06T03:38:10;16.00;97.30
17364;DHT22;8799;43.594;13.526;2023-04-06T03:40:38;16.00;97.30
17364;DHT22;8799;43.594;13.526;2023-04-06T03:43:07;16.00;97.30
17364;DHT22;8799;43.594;13.526;2023-04-06T03:45:34;16.00;97.20
17364;DHT22;8799;43.594;13.526;2023-04-06T03:48:02;16.00;97.10
17364;DHT22;8799;43.594;13.526;2023-04-06T03:50:30;16.00;97.20
17364;DHT22;8799;43.594;13.526;2023-04-06T03:52:58;16.00;97.10
17364;DHT22;8799;43.594;13.526;2023-04-06T03:55:27;16.00;97.10
17364;DHT22;8799;43.594;13.526;2023-04-06T03:57:56;16.00;97.20
17364;DHT22;8799;43.594;13.526;2023-04-06T04:00:27;16.00;97.20
17364;DHT22;8799;43.594;13.526;2023-04-06T04:02:55;16.00;97.20
17364;DHT22;8799;43.594;13.526;2023-04-06T04:05:23;16.00;97.20
17364;DHT22;8799;43.594;13.526;2023-04-06T04:07:51;16.00;97.20
17364;DHT22;8799;43.594;13.526;2023-04-06T04:10:18;16.00;97.20
17364;DHT22;8799;43.594;13.526;2023-04-06T04:12:46;15.90;97.30
17364;DHT22;8799;43.594;13.526;2023-04-06T04:15:14;16.00;97.20
17364;DHT22;8799;43.594;13.526;2023-04-06T04:17:43;16.00;97.20
17364;DHT22;8799;43.594;13.526;2023-04-06T04:20:14;16.00;97.30
17364;DHT22;8799;43.594;13.526;2023-04-06T04:22:42;16.00;97.10
17364;DHT22;8799;43.594;13.526;2023-04-06T04:25:10;15.90;96.90
17364;DHT22;8799;43.594;13.526;2023-04-06T04:27:38;15.90;96.90
17364;DHT22;8799;43.594;13.526;2023-04-06T04:30:08;15.90;96.90
17364;DHT22;8799;43.594;13.526;2023-04-06T04:32:35;15.90;96.90
17364;DHT22;8799;43.594;13.526;2023-04-06T04:35:06;15.90;96.80
17364;DHT22;8799;43.594;13.526;2023-04-06T04:37:34;15.90;96.80
17364;DHT22;8799;43.594;13.526;2023-04-06T04:40:02;15.90;96.90
17364;DHT22;8799;43.594;13.526;2023-04-06T04:42:31;15.90;97.10
17364;DHT22;8799;43.594;13.526;2023-04-06T04:44:59;15.80;96.90
17364;DHT22;8799;43.594;13.526;2023-04-06T04:47:26;15.90;96.70
17364;DHT22;8799;43.594;13.526;2023-04-06T04:49:54;15.90;96.60
17364;DHT22;8799;43.594;13.526;2023-04-06T04:52:24;15.80;96.40
17364;DHT22;8799;43.594;13.526;2023-04-06T04:54:53;15.80;96.50
17364;DHT22;8799;43.594;13.526;2023-04-06T04:57:21;15.90;96.60
17364;DHT22;8799;43.594;13.526;2023-04-06T04:59:49;15.80;96.40
17364;DHT22;8799;43.594;13.526;2023-04-06T05:02:17;15.80;96.50
17364;DHT22;8799;43.594;13.526;2023-04-06T05:04:46;15.80;96.40
17364;DHT22;8799;43.594;13.526;2023-04-06T05:07:14;15.80;96.50
17364;DHT22;8799;43.594;13.526;2023-04-06T05:09:45;15.80;96.50
17364;DHT22;8799;43.594;13.526;2023-04-06T05:12:13;15.90;97.00
17364;DHT22;8799;43.594;13.526;2023-04-06T05:14:42;15.80;97.10
17364;DHT22;8799;43.594;13.526;2023-04-06T05:17:10;15.80;97.40
17364;DHT22;8799;43.594;13.526;2023-04-06T05:19:38;15.90;97.60
17364;DHT22;8799;43.594;13.526;2023-04-06T05:22:06;15.90;97.50
17364;DHT22;8799;43.594;13.526;2023-04-06T05:24:34;15.90;97.40
17364;DHT22;8799;43.594;13.526;2023-04-06T05:27:04;15.90;97.20
17364;DHT22;8799;43.594;13.526;2023-04-06T05:29:32;15.90;97.10
17364;DHT22;8799;43.594;13.526;2023-04-06T05:32:01;16.00;97.30
17364;DHT22;8799;43.594;13.526;2023-04-06T05:34:29;16.00;97.60
17364;DHT22;8799;43.594;13.526;2023-04-06T05:36:56;16.00;98.00
17364;DHT22;8799;43.594;13.526;2023-04-06T05:39:25;16.00;98.10
17364;DHT22;8799;43.594;13.526;2023-04-06T05:41:54;16.00;98.10
17364;DHT22;8799;43.594;13.526;2023-04-06T05:44:23;16.00;98.00
17364;DHT22;8799;43.594;13.526;2023-04-06T05:46:51;16.00;97.90
17364;DHT22;8799;43.594;13.526;2023-04-06T05:49:19;16.00;97.80
17364;DHT22;8799;43.594;13.526;2023-04-06T05:51:47;16.00;97.70
17364;DHT22;8799;43.594;13.526;2023-04-06T05:54:15;16.00;97.60
17364;DHT22;8799;43.594;13.526;2023-04-06T05:56:43;16.00;97.50
17364;DHT22;8799;43.594;13.526;2023-04-06T05:59:10;16.00;97.40
17364;DHT22;8799;43.594;13.526;2023-04-06T06:01:40;16.00;97.30
17364;DHT22;8799;43.594;13.526;2023-04-06T06:04:08;16.00;97.10
17364;DHT22;8799;43.594;13.526;2023-04-06T06:06:36;16.00;97.10
17364;DHT22;8799;43.594;13.526;2023-04-06T06:09:04;16.00;96.90
17364;DHT22;8799;43.594;13.526;2023-04-06T06:11:32;16.00;96.80
17364;DHT22;8799;43.594;13.526;2023-04-06T06:14:01;16.00;96.70
17364;DHT22;8799;43.594;13.526;2023-04-06T06:16:28;16.00;96.70
17364;DHT22;8799;43.594;13.526;2023-04-06T06:18:59;16.00;96.50
17364;DHT22;8799;43.594;13.526;2023-04-06T06:21:26;16.00;96.40
17364;DHT22;8799;43.594;13.526;2023-04-06T06:23:55;16.00;96.40
17364;DHT22;8799;43.594;13.526;2023-04-06T06:26:23;16.00;96.30
17364;DHT22;8799;43.594;13.526;2023-04-06T06:28:50;16.00;96.20
17364;DHT22;8799;43.594;13.526;2023-04-06T06:31:18;16.00;96.20
17364;DHT22;8799;43.594;13.526;2023-04-06T06:33:46;16.00;96.10
17364;DHT22;8799;43.594;13.526;2023-04-06T06:36:17;16.00;96.00
17364;DHT22;8799;43.594;13.526;2023-04-06T06:38:45;16.00;96.00
17364;DHT22;8799;43.594;13.526;2023-04-06T06:41:12;16.00;95.90
17364;DHT22;8799;43.594;13.526;2023-04-06T06:43:40;16.00;95.80
17364;DHT22;8799;43.594;13.526;2023-04-06T06:46:08;16.00;95.80
17364;DHT22;8799;43.594;13.526;2023-04-06T06:48:37;16.00;95.60
17364;DHT22;8799;43.594;13.526;2023-04-06T06:51:04;16.00;95.50
17364;DHT22;8799;43.594;13.526;2023-04-06T06:53:33;16.00;95.40
17364;DHT22;8799;43.594;13.526;2023-04-06T06:56:01;16.00;95.30
17364;DHT22;8799;43.594;13.526;2023-04-06T06:58:29;16.00;95.30
17364;DHT22;8799;43.594;13.526;2023-04-06T07:00:57;16.00;95.30
17364;DHT22;8799;43.594;13.526;2023-04-06T07:03:24;16.00;95.20
17364;DHT22;8799;43.594;13.526;2023-04-06T07:05:52;16.00;95.10
17364;DHT22;8799;43.594;13.526;2023-04-06T07:08:20;16.00;95.00
17364;DHT22;8799;43.594;13.526;2023-04-06T07:10:51;16.00;95.10
17364;DHT22;8799;43.594;13.526;2023-04-06T07:13:19;16.00;95.00
17364;DHT22;8799;43.594;13.526;2023-04-06T07:15:48;15.90;95.00
17364;DHT22;8799;43.594;13.526;2023-04-06T07:18:17;16.00;94.90
17364;DHT22;8799;43.594;13.526;2023-04-06T07:20:45;16.00;95.00
17364;DHT22;8799;43.594;13.526;2023-04-06T07:23:13;16.00;94.80
17364;DHT22;8799;43.594;13.526;2023-04-06T07:25:41;16.00;94.80
17364;DHT22;8799;43.594;13.526;2023-04-06T07:28:11;15.90;95.00
17364;DHT22;8799;43.594;13.526;2023-04-06T07:30:39;15.90;95.00
17364;DHT22;8799;43.594;13.526;2023-04-06T07:33:07;15.90;95.10
17364;DHT22;8799;43.594;13.526;2023-04-06T07:35:36;15.90;95.20
17364;DHT22;8799;43.594;13.526;2023-04-06T07:38:04;15.90;95.30
17364;DHT22;8799;43.594;13.526;2023-04-06T07:40:32;15.90;95.30
17364;DHT22;8799;43.594;13.526;2023-04-06T07:43:00;15.90;95.40
17364;DHT22;8799;43.594;13.526;2023-04-06T07:45:30;15.90;95.60
17364;DHT22;8799;43.594;13.526;2023-04-06T07:47:58;15.90;95.60
17364;DHT22;8799;43.594;13.526;2023-04-06T07:50:27;15.90;95.70
17364;DHT22;8799;43.594;13.526;2023-04-06T07:52:55;15.90;95.70
17364;DHT22;8799;43.594;13.526;2023-04-06T07:55:23;15.90;95.80
17364;DHT22;8799;43.594;13.526;2023-04-06T07:57:51;15.90;95.80
17364;DHT22;8799;43.594;13.526;2023-04-06T08:00:19;15.90;95.80
17364;DHT22;8799;43.594;13.526;2023-04-06T08:02:50;15.90;95.90
17364;DHT22;8799;43.594;13.526;2023-04-06T08:05:18;15.90;96.00
17364;DHT22;8799;43.594;13.526;2023-04-06T08:07:48;15.80;95.90
17364;DHT22;8799;43.594;13.526;2023-04-06T08:10:16;15.80;95.90
17364;DHT22;8799;43.594;13.526;2023-04-06T08:12:45;15.90;96.10
17364;DHT22;8799;43.594;13.526;2023-04-06T08:15:12;15.90;96.10
17364;DHT22;8799;43.594;13.526;2023-04-06T08:17:39;15.90;96.10
17364;DHT22;8799;43.594;13.526;2023-04-06T08:20:10;15.80;96.00
17364;DHT22;8799;43.594;13.526;2023-04-06T08:22:38;15.80;96.00
17364;DHT22;8799;43.594;13.526;2023-04-06T08:25:08;15.80;96.10
17364;DHT22;8799;43.594;13.526;2023-04-06T08:27:53;15.80;96.10
17364;DHT22;8799;43.594;13.526;2023-04-06T08:30:27;16.20;96.40
17364;DHT22;8799;43.594;13.526;2023-04-06T08:32:54;15.80;96.20
17364;DHT22;8799;43.594;13.526;2023-04-06T08:35:24;15.80;96.20
17364;DHT22;8799;43.594;13.526;2023-04-06T08:37:59;15.90;96.30
17364;DHT22;8799;43.594;13.526;2023-04-06T08:40:36;15.80;96.20
17364;DHT22;8799;43.594;13.526;2023-04-06T08:43:15;15.80;96.20
17364;DHT22;8799;43.594;13.526;2023-04-06T08:45:44;15.80;96.20
17364;DHT22;8799;43.594;13.526;2023-04-06T08:48:13;15.80;96.20
17364;DHT22;8799;43.594;13.526;2023-04-06T08:50:44;15.80;96.20
17364;DHT22;8799;43.594;13.526;2023-04-06T08:53:12;15.80;96.30
17364;DHT22;8799;43.594;13.526;2023-04-06T08:55:43;15.80;96.20
17364;DHT22;8799;43.594;13.526;2023-04-06T08:58:12;15.80;96.30
17364;DHT22;8799;43.594;13.526;2023-04-06T09:01:08;16.60;96.70
17364;DHT22;8799;43.594;13.526;2023-04-06T09:03:38;15.80;96.10
17364;DHT22;8799;43.594;13.526;2023-04-06T09:06:09;15.80;96.10
17364;DHT22;8799;43.594;13.526;2023-04-06T09:08:40;15.80;96.10
17364;DHT22;8799;43.594;13.526;2023-04-06T09:11:09;15.80;96.10
17364;DHT22;8799;43.594;13.526;2023-04-06T09:13:47;15.80;96.10
17364;DHT22;8799;43.594;13.526;2023-04-06T09:16:14;15.80;96.00
17364;DHT22;8799;43.594;13.526;2023-04-06T09:18:42;15.80;96.00
17364;DHT22;8799;43.594;13.526;2023-04-06T09:21:12;15.70;96.00
17364;DHT22;8799;43.594;13.526;2023-04-06T09:23:40;15.70;96.00
17364;DHT22;8799;43.594;13.526;2023-04-06T09:26:10;15.80;96.00
17364;DHT22;8799;43.594;13.526;2023-04-06T09:28:48;15.80;96.00
17364;DHT22;8799;43.594;13.526;2023-04-06T09:31:22;15.80;95.90
17364;DHT22;8799;43.594;13.526;2023-04-06T09:33:51;15.80;95.80
17364;DHT22;8799;43.594;13.526;2023-04-06T09:36:30;15.80;95.80
17364;DHT22;8799;43.594;13.526;2023-04-06T09:39:01;15.70;95.80
17364;DHT22;8799;43.594;13.526;2023-04-06T09:41:29;15.70;95.90
17364;DHT22;8799;43.594;13.526;2023-04-06T09:44:04;15.70;95.90
17364;DHT22;8799;43.594;13.526;2023-04-06T09:46:34;15.70;95.80
17364;DHT22;8799;43.594;13.526;2023-04-06T09:49:02;15.70;95.80
17364;DHT22;8799;43.594;13.526;2023-04-06T09:51:36;15.70;95.70
17364;DHT22;8799;43.594;13.526;2023-04-06T09:54:06;15.70;95.80
17364;DHT22;8799;43.594;13.526;2023-04-06T09:56:39;15.70;95.80
17364;DHT22;8799;43.594;13.526;2023-04-06T09:59:30;15.70;95.80
17364;DHT22;8799;43.594;13.526;2023-04-06T10:02:03;15.70;95.80
17364;DHT22;8799;43.594;13.526;2023-04-06T10:04:39;15.70;95.80
17364;DHT22;8799;43.594;13.526;2023-04-06T10:07:10;15.70;95.80
17364;DHT22;8799;43.594;13.526;2023-04-06T10:09:39;15.70;95.80
17364;DHT22;8799;43.594;13.526;2023-04-06T10:12:07;15.70;95.80
17364;DHT22;8799;43.594;13.526;2023-04-06T10:14:36;16.00;96.00
17364;DHT22;8799;43.594;13.526;2023-04-06T10:17:04;15.70;96.00
17364;DHT22;8799;43.594;13.526;2023-04-06T10:19:38;15.70;96.10
17364;DHT22;8799;43.594;13.526;2023-04-06T10:22:10;15.70;96.10
17364;DHT22;8799;43.594;13.526;2023-04-06T10:24:40;15.70;96.00
17364;DHT22;8799;43.594;13.526;2023-04-06T10:27:08;15.70;96.00
17364;DHT22;8799;43.594;13.526;2023-04-06T10:29:44;15.70;95.90
17364;DHT22;8799;43.594;13.526;2023-04-06T10:32:12;15.70;95.80
17364;DHT22;8799;43.594;13.526;2023-04-06T10:34:40;15.70;95.50
17364;DHT22;8799;43.594;13.526;2023-04-06T10:37:22;15.70;95.30
17364;DHT22;8799;43.594;13.526;2023-04-06T10:39:52;15.70;95.40
17364;DHT22;8799;43.594;13.526;2023-04-06T10:42:24;15.70;95.40
17364;DHT22;8799;43.594;13.526;2023-04-06T10:44:52;15.70;95.40
17364;DHT22;8799;43.594;13.526;2023-04-06T10:47:20;15.70;95.30
17364;DHT22;8799;43.594;13.526;2023-04-06T10:49:48;15.70;95.40
17364;DHT22;8799;43.594;13.526;2023-04-06T10:52:18;15.70;95.40
17364;DHT22;8799;43.594;13.526;2023-04-06T10:54:47;15.70;95.40
17364;DHT22;8799;43.594;13.526;2023-04-06T10:57:15;15.70;95.40
17364;DHT22;8799;43.594;13.526;2023-04-06T10:59:44;15.70;95.40
17364;DHT22;8799;43.594;13.526;2023-04-06T11:02:19;15.70;95.40
17364;DHT22;8799;43.594;13.526;2023-04-06T11:04:55;15.70;95.30
17364;DHT22;8799;43.594;13.526;2023-04-06T11:07:25;15.70;95.40
17364;DHT22;8799;43.594;13.526;2023-04-06T11:09:53;15.70;95.30
17364;DHT22;8799;43.594;13.526;2023-04-06T11:12:21;15.70;95.20
17364;DHT22;8799;43.594;13.526;2023-04-06T11:14:59;15.70;95.20
17364;DHT22;8799;43.594;13.526;2023-04-06T11:17:30;17.60;96.10
17364;DHT22;8799;43.594;13.526;2023-04-06T11:19:59;15.70;95.20
17364;DHT22;8799;43.594;13.526;2023-04-06T11:22:28;15.70;95.10
17364;DHT22;8799;43.594;13.526;2023-04-06T11:25:05;15.70;95.00
17364;DHT22;8799;43.594;13.526;2023-04-06T11:27:33;15.70;95.00
17364;DHT22;8799;43.594;13.526;2023-04-06T11:30:01;15.70;94.90
17364;DHT22;8799;43.594;13.526;2023-04-06T11:32:38;15.70;94.70
17364;DHT22;8799;43.594;13.526;2023-04-06T11:35:07;15.70;94.60
17364;DHT22;8799;43.594;13.526;2023-04-06T11:37:36;15.60;94.40
17364;DHT22;8799;43.594;13.526;2023-04-06T11:40:09;15.60;94.30
17364;DHT22;8799;43.594;13.526;2023-04-06T11:42:37;15.60;94.20
17364;DHT22;8799;43.594;13.526;2023-04-06T11:45:07;15.60;94.10
17364;DHT22;8799;43.594;13.526;2023-04-06T11:47:38;15.60;94.00
17364;DHT22;8799;43.594;13.526;2023-04-06T11:50:06;15.60;93.80
17364;DHT22;8799;43.594;13.526;2023-04-06T11:52:38;15.60;93.70
17364;DHT22;8799;43.594;13.526;2023-04-06T11:55:13;15.60;93.60
17364;DHT22;8799;43.594;13.526;2023-04-06T11:57:41;15.60;93.40
17364;DHT22;8799;43.594;13.526;2023-04-06T12:00:11;15.60;93.40
17364;DHT22;8799;43.594;13.526;2023-04-06T12:02:45;15.60;93.30
17364;DHT22;8799;43.594;13.526;2023-04-06T12:05:13;15.60;93.40
17364;DHT22;8799;43.594;13.526;2023-04-06T12:07:42;15.60;93.40
17364;DHT22;8799;43.594;13.526;2023-04-06T12:10:10;15.60;93.20
17364;DHT22;8799;43.594;13.526;2023-04-06T12:12:39;15.50;93.20
17364;DHT22;8799;43.594;13.526;2023-04-06T12:15:08;15.50;93.30
17364;DHT22;8799;43.594;13.526;2023-04-06T12:17:35;15.50;93.30
17364;DHT22;8799;43.594;13.526;2023-04-06T12:20:04;15.50;93.20
17364;DHT22;8799;43.594;13.526;2023-04-06T12:22:32;15.50;93.20
17364;DHT22;8799;43.594;13.526;2023-04-06T12:25:02;15.50;93.10
17364;DHT22;8799;43.594;13.526;2023-04-06T12:27:30;15.50;93.10
17364;DHT22;8799;43.594;13.526;2023-04-06T12:29:58;15.50;93.10
17364;DHT22;8799;43.594;13.526;2023-04-06T12:32:29;15.50;93.10
17364;DHT22;8799;43.594;13.526;2023-04-06T12:34:57;15.50;93.10
17364;DHT22;8799;43.594;13.526;2023-04-06T12:37:27;15.50;93.10
17364;DHT22;8799;43.594;13.526;2023-04-06T12:39:54;15.50;93.10
17364;DHT22;8799;43.594;13.526;2023-04-06T12:42:24;15.50;93.10
17364;DHT22;8799;43.594;13.526;2023-04-06T12:44:52;15.50;93.00
17364;DHT22;8799;43.594;13.526;2023-04-06T12:47:19;15.50;93.00
17364;DHT22;8799;43.594;13.526;2023-04-06T12:49:48;15.50;93.00
17364;DHT22;8799;43.594;13.526;2023-04-06T12:52:15;15.50;92.90
17364;DHT22;8799;43.594;13.526;2023-04-06T12:54:43;15.50;92.90
17364;DHT22;8799;43.594;13.526;2023-04-06T12:57:11;15.50;92.90
17364;DHT22;8799;43.594;13.526;2023-04-06T12:59:44;15.50;92.90
17364;DHT22;8799;43.594;13.526;2023-04-06T13:02:11;15.50;92.90
17364;DHT22;8799;43.594;13.526;2023-04-06T13:04:39;15.50;92.90
17364;DHT22;8799;43.594;13.526;2023-04-06T13:07:07;15.50;92.90
17364;DHT22;8799;43.594;13.526;2023-04-06T13:09:35;15.50;92.90
17364;DHT22;8799;43.594;13.526;2023-04-06T13:12:03;15.40;92.70
17364;DHT22;8799;43.594;13.526;2023-04-06T13:14:31;15.50;92.80
17364;DHT22;8799;43.594;13.526;2023-04-06T13:17:01;15.40;92.70
17364;DHT22;8799;43.594;13.526;2023-04-06T13:19:29;15.40;92.70
17364;DHT22;8799;43.594;13.526;2023-04-06T13:21:57;15.40;92.70
17364;DHT22;8799;43.594;13.526;2023-04-06T13:24:25;15.40;92.70
17364;DHT22;8799;43.594;13.526;2023-04-06T13:26:53;15.40;92.70
17364;DHT22;8799;43.594;13.526;2023-04-06T13:29:21;15.40;92.70
17364;DHT22;8799;43.594;13.526;2023-04-06T13:31:49;15.40;92.70
17364;DHT22;8799;43.594;13.526;2023-04-06T13:34:18;15.40;92.70
17364;DHT22;8799;43.594;13.526;2023-04-06T13:36:46;15.40;92.80
17364;DHT22;8799;43.594;13.526;2023-04-06T13:39:13;15.40;92.80
17364;DHT22;8799;43.594;13.526;2023-04-06T13:41:41;15.30;92.80
17364;DHT22;8799;43.594;13.526;2023-04-06T13:44:10;15.40;92.80
17364;DHT22;8799;43.594;13.526;2023-04-06T13:46:38;15.40;92.90
17364;DHT22;8799;43.594;13.526;2023-04-06T13:49:06;15.40;92.80
17364;DHT22;8799;43.594;13.526;2023-04-06T13:51:39;15.40;92.90
17364;DHT22;8799;43.594;13.526;2023-04-06T13:54:07;15.40;92.90
17364;DHT22;8799;43.594;13.526;2023-04-06T13:56:35;15.40;92.90
17364;DHT22;8799;43.594;13.526;2023-04-06T13:59:03;15.40;93.00
17364;DHT22;8799;43.594;13.526;2023-04-06T14:01:32;15.30;93.00
17364;DHT22;8799;43.594;13.526;2023-04-06T14:04:00;15.40;93.00
17364;DHT22;8799;43.594;13.526;2023-04-06T14:06:27;15.40;93.00
17364;DHT22;8799;43.594;13.526;2023-04-06T14:08:57;15.40;93.00
17364;DHT22;8799;43.594;13.526;2023-04-06T14:11:27;15.40;93.00
17364;DHT22;8799;43.594;13.526;2023-04-06T14:13:55;15.40;93.00
17364;DHT22;8799;43.594;13.526;2023-04-06T14:16:23;15.40;93.00
17364;DHT22;8799;43.594;13.526;2023-04-06T14:18:54;15.30;93.10
17364;DHT22;8799;43.594;13.526;2023-04-06T14:21:23;15.30;93.10
17364;DHT22;8799;43.594;13.526;2023-04-06T14:23:51;15.30;93.10
17364;DHT22;8799;43.594;13.526;2023-04-06T14:26:22;15.30;93.10
17364;DHT22;8799;43.594;13.526;2023-04-06T14:28:51;15.30;93.10
17364;DHT22;8799;43.594;13.526;2023-04-06T14:31:20;15.30;93.40
17364;DHT22;8799;43.594;13.526;2023-04-06T14:33:48;15.40;94.20
17364;DHT22;8799;43.594;13.526;2023-04-06T14:36:16;15.30;94.80
17364;DHT22;8799;43.594;13.526;2023-04-06T14:38:44;15.40;95.30
17364;DHT22;8799;43.594;13.526;2023-04-06T14:41:17;15.30;95.50
17364;DHT22;8799;43.594;13.526;2023-04-06T14:43:50;15.40;95.80
17364;DHT22;8799;43.594;13.526;2023-04-06T14:46:18;15.40;96.10
17364;DHT22;8799;43.594;13.526;2023-04-06T14:48:47;15.40;96.20
17364;DHT22;8799;43.594;13.526;2023-04-06T14:51:15;15.40;96.30
17364;DHT22;8799;43.594;13.526;2023-04-06T14:53:44;15.40;96.50
17364;DHT22;8799;43.594;13.526;2023-04-06T14:56:12;15.40;96.50
17364;DHT22;8799;43.594;13.526;2023-04-06T14:58:39;15.40;96.50
17364;DHT22;8799;43.594;13.526;2023-04-06T15:01:09;15.40;96.60
17364;DHT22;8799;43.594;13.526;2023-04-06T15:03:39;15.40;96.70
17364;DHT22;8799;43.594;13.526;2023-04-06T15:06:12;15.40;96.70
17364;DHT22;8799;43.594;13.526;2023-04-06T15:08:41;15.40;96.80
17364;DHT22;8799;43.594;13.526;2023-04-06T15:11:10;15.40;96.70
17364;DHT22;8799;43.594;13.526;2023-04-06T15:13:38;15.40;96.70
17364;DHT22;8799;43.594;13.526;2023-04-06T15:16:12;15.40;96.70
17364;DHT22;8799;43.594;13.526;2023-04-06T15:18:42;15.40;96.80
17364;DHT22;8799;43.594;13.526;2023-04-06T15:21:10;15.40;96.80
17364;DHT22;8799;43.594;13.526;2023-04-06T15:23:40;15.40;96.80
17364;DHT22;8799;43.594;13.526;2023-04-06T15:26:08;15.40;96.90
17364;DHT22;8799;43.594;13.526;2023-04-06T15:28:38;15.40;97.00
17364;DHT22;8799;43.594;13.526;2023-04-06T15:31:14;15.40;97.00
17364;DHT22;8799;43.594;13.526;2023-04-06T15:33:43;15.40;97.10
17364;DHT22;8799;43.594;13.526;2023-04-06T15:36:23;15.40;97.00
17364;DHT22;8799;43.594;13.526;2023-04-06T15:38:51;15.40;97.00
17364;DHT22;8799;43.594;13.526;2023-04-06T15:41:19;15.40;96.90